Time;durP1;ratioP1;P1;durP2;ratioP2;P2;SDS_P1;SDS_P2;PMS_P1;PMS_P2;Temp;Humidity;BMP_temperature;BMP_pressure;BME280_temperature;BME280_humidity;BME280_pressure;Samples;Min_cycle;Max_cycle;Signal;HPM_P1;HPM_P2
2021/05/09 00:04:19;;;;;;;3.45;1.98;;;;;;;11.65;57.77;97967.78;3774775;78;44066;-23
2021/05/09 00:09:25;;;;;;;3.45;1.70;;;;;;;11.62;57.68;97972.17;3774830;78;44074;-23
2021/05/09 00:14:32;;;;;;;2.25;1.80;;;;;;;11.57;58.42;97963.80;3774489;77;44080;-23
2021/05/09 00:19:37;;;;;;;2.65;1.70;;;;;;;11.46;59.23;97966.91;3774990;78;44007;-22
2021/05/09 00:24:43;;;;;;;3.30;1.80;;;;;;;11.35;59.71;97960.88;3770199;78;43362;-23
2021/05/09 00:29:49;;;;;;;2.65;1.92;;;;;;;11.28;60.48;97965.30;3774839;77;44008;-23
2021/05/09 00:34:55;;;;;;;2.92;2.08;;;;;;;11.20;60.56;97964.84;3774011;78;43410;-23
2021/05/09 00:40:00;;;;;;;2.62;1.95;;;;;;;11.14;60.74;97961.52;3773429;77;44030;-23
2021/05/09 00:45:08;;;;;;;2.83;2.00;;;;;;;11.01;61.87;97954.50;3771681;77;44096;-23
2021/05/09 00:50:14;;;;;;;2.47;1.70;;;;;;;10.84;63.87;97953.20;3774935;78;44538;-23
2021/05/09 00:55:21;;;;;;;3.02;2.10;;;;;;;10.73;64.33;97955.79;3772589;77;44056;-23
2021/05/09 01:00:27;;;;;;;2.27;2.00;;;;;;;10.66;64.63;97951.27;3775059;78;43719;-23
2021/05/09 01:05:33;;;;;;;2.40;1.90;;;;;;;10.55;65.33;97939.85;3779758;78;43986;-23
2021/05/09 01:10:40;;;;;;;2.12;1.72;;;;;;;10.45;66.31;97940.56;3806180;76;43444;-23
2021/05/09 01:15:46;;;;;;;2.40;2.00;;;;;;;10.64;64.77;97941.50;3801863;76;43669;-23
2021/05/09 01:20:54;;;;;;;2.75;2.02;;;;;;;10.66;65.46;97945.36;3805237;78;44058;-23
2021/05/09 01:26:00;;;;;;;3.83;2.00;;;;;;;10.62;65.79;97947.56;3802188;76;43333;-24
2021/05/09 01:31:06;;;;;;;3.47;1.98;;;;;;;10.61;65.89;97936.98;3804860;77;43666;-23
2021/05/09 01:36:13;;;;;;;3.00;2.08;;;;;;;10.64;66.24;97939.33;3804031;77;44097;-23
2021/05/09 01:41:19;;;;;;;3.62;2.30;;;;;;;10.60;65.62;97943.37;3805784;76;43723;-23
2021/05/09 01:46:25;;;;;;;2.47;2.27;;;;;;;10.56;66.74;97934.80;3804787;78;43376;-23
2021/05/09 01:51:31;;;;;;;2.85;2.27;;;;;;;10.45;67.19;97934.66;3804876;76;44008;-23
2021/05/09 01:56:38;;;;;;;2.30;2.08;;;;;;;10.39;67.99;97931.32;3805146;76;43266;-23
2021/05/09 02:01:45;;;;;;;3.47;2.30;;;;;;;10.34;68.42;97930.95;3804817;78;44059;-23
2021/05/09 02:07:06;;;;;;;2.40;2.20;;;;;;;10.28;68.86;97935.69;3800069;78;26303;-23
2021/05/09 02:12:13;;;;;;;3.55;2.10;;;;;;;10.25;69.23;97940.89;3806002;76;43669;-23
2021/05/09 02:17:20;;;;;;;2.47;2.10;;;;;;;10.30;68.87;97936.33;3804023;78;26354;-23
2021/05/09 02:22:28;;;;;;;3.90;2.10;;;;;;;10.31;68.81;97928.59;3803849;76;26283;-23
2021/05/09 02:27:35;;;;;;;3.25;1.95;;;;;;;10.30;69.09;97930.95;3801278;76;44393;-23
2021/05/09 02:32:41;;;;;;;3.08;1.95;;;;;;;10.32;68.38;97919.02;3805546;78;43672;-23
2021/05/09 02:37:47;;;;;;;2.42;2.10;;;;;;;10.32;68.60;97919.51;3805361;77;43322;-23
2021/05/09 02:42:53;;;;;;;2.58;2.15;;;;;;;10.56;66.66;97924.52;3801609;76;43981;-23
2021/05/09 02:48:00;;;;;;;4.25;2.08;;;;;;;10.50;66.94;97919.84;3802286;77;43679;-23
2021/05/09 02:53:08;;;;;;;3.33;2.30;;;;;;;10.45;67.85;97910.42;3804185;76;26338;-23
2021/05/09 02:58:14;;;;;;;2.60;2.30;;;;;;;10.56;66.58;97914.61;3800455;76;42950;-23
2021/05/09 03:03:21;;;;;;;3.02;2.08;;;;;;;10.61;65.66;97904.65;3803081;78;44008;-23
2021/05/09 03:08:28;;;;;;;3.65;2.22;;;;;;;10.71;65.85;97903.08;3819080;77;43962;-23
2021/05/09 03:13:34;;;;;;;4.12;2.12;;;;;;;10.73;65.86;97904.60;3828147;76;42962;-24
2021/05/09 03:18:40;;;;;;;2.35;1.90;;;;;;;10.66;66.79;97911.69;3829052;76;44873;-23
2021/05/09 03:23:46;;;;;;;2.30;1.77;;;;;;;10.66;67.06;97907.64;3829263;76;44360;-24
2021/05/09 03:28:52;;;;;;;2.10;1.90;;;;;;;10.71;66.20;97899.89;3829605;76;44032;-23
2021/05/09 03:33:58;;;;;;;2.47;1.87;;;;;;;10.84;65.98;97898.48;3830009;76;43395;-23
2021/05/09 03:39:05;;;;;;;2.30;1.80;;;;;;;10.82;66.62;97901.86;3829681;76;43502;-23
2021/05/09 03:44:11;;;;;;;2.27;1.90;;;;;;;10.76;67.52;97890.76;3830970;76;44458;-23
2021/05/09 03:49:16;;;;;;;3.30;2.02;;;;;;;10.75;67.51;97889.11;3824960;77;44120;-22
2021/05/09 03:54:23;;;;;;;1.80;1.65;;;;;;;10.72;68.01;97884.55;3829931;77;43288;-22
2021/05/09 03:59:29;;;;;;;2.72;1.82;;;;;;;10.74;67.73;97898.69;3830839;76;44445;-25
2021/05/09 04:04:35;;;;;;;2.20;1.90;;;;;;;10.77;67.51;97891.61;3826100;77;44103;-25
2021/05/09 04:09:41;;;;;;;2.58;1.62;;;;;;;10.79;67.28;97886.38;3828995;77;43984;-25
2021/05/09 04:14:47;;;;;;;3.10;1.80;;;;;;;10.83;67.57;97888.20;3828074;76;43665;-25
2021/05/09 04:19:52;;;;;;;2.20;1.80;;;;;;;10.84;67.55;97887.19;3828906;77;43709;-25
2021/05/09 04:24:58;;;;;;;2.15;1.85;;;;;;;10.85;67.95;97886.70;3829911;76;43807;-25
2021/05/09 04:30:06;;;;;;;3.47;2.10;;;;;;;10.85;67.65;97885.34;3825670;76;44104;-25
2021/05/09 04:35:12;;;;;;;3.08;2.02;;;;;;;10.89;67.72;97887.52;3823353;77;43460;-25
2021/05/09 04:40:18;;;;;;;2.62;2.10;;;;;;;10.88;69.08;97888.52;3730566;78;44057;-25
2021/05/09 04:45:25;;;;;;;3.15;2.05;;;;;;;10.91;68.70;97885.48;3822803;77;44046;-25
2021/05/09 04:50:31;;;;;;;3.95;2.05;;;;;;;10.94;69.03;97883.76;3820272;76;44039;-25
2021/05/09 04:55:41;;;;;;;2.58;2.00;;;;;;;11.01;68.60;97882.55;3818555;76;44053;-25
2021/05/09 05:00:47;;;;;;;2.10;1.87;;;;;;;11.07;68.69;97889.94;3815230;76;43718;-25
2021/05/09 05:05:53;;;;;;;4.15;2.00;;;;;;;11.13;69.12;97887.04;3813224;76;43690;-25
2021/05/09 05:11:00;;;;;;;2.92;1.70;;;;;;;11.17;69.32;97892.39;3677429;79;42957;-25
2021/05/09 05:16:07;;;;;;;2.25;1.80;;;;;;;11.20;69.92;97882.60;3764124;78;43349;-25
2021/05/09 05:21:13;;;;;;;1.98;1.70;;;;;;;11.25;70.34;97869.92;3771585;78;43683;-25
2021/05/09 05:26:20;;;;;;;2.10;1.90;;;;;;;11.37;69.38;97881.98;3774948;77;44452;-25
2021/05/09 05:31:26;;;;;;;2.22;1.85;;;;;;;11.48;68.77;97881.22;3773277;78;44089;-25
2021/05/09 05:36:32;;;;;;;2.45;1.75;;;;;;;11.60;68.59;97883.00;3772986;77;42979;-21
2021/05/09 05:41:38;;;;;;;4.60;1.55;;;;;;;11.65;68.06;97885.98;3774828;77;44077;-21
2021/05/09 05:46:44;;;;;;;1.80;1.60;;;;;;;11.69;69.09;97892.20;3771642;78;44007;-22
2021/05/09 05:51:51;;;;;;;2.87;2.12;;;;;;;11.79;69.01;97891.11;3773044;78;43287;-22
2021/05/09 05:56:57;;;;;;;2.72;1.80;;;;;;;11.87;69.08;97891.02;3776396;77;44051;-22
2021/05/09 06:02:04;;;;;;;2.85;1.85;;;;;;;12.04;69.03;97883.64;3773627;78;43329;-22
2021/05/09 06:07:12;;;;;;;2.33;1.80;;;;;;;12.20;67.52;97889.37;3775112;77;43689;-21
2021/05/09 06:12:18;;;;;;;3.42;1.52;;;;;;;12.38;68.10;97886.84;3775096;77;44039;-21
2021/05/09 06:17:25;;;;;;;3.02;1.77;;;;;;;12.49;68.06;97891.25;3769889;78;42655;-21
2021/05/09 06:22:31;;;;;;;2.77;1.67;;;;;;;12.67;67.54;97892.75;3772066;78;44551;-21
2021/05/09 06:27:38;;;;;;;1.82;1.60;;;;;;;12.79;68.30;97884.48;3774786;77;44069;-21
2021/05/09 06:32:43;;;;;;;2.60;1.87;;;;;;;12.95;66.14;97879.37;3772941;77;44065;-21
2021/05/09 06:37:52;;;;;;;1.72;1.62;;;;;;;13.03;67.18;97881.63;3774032;77;44038;-21
2021/05/09 06:43:01;;;;;;;2.37;1.60;;;;;;;13.18;64.90;97882.43;3771807;77;43829;-21
2021/05/09 06:48:09;;;;;;;2.98;2.27;;;;;;;13.49;63.57;97874.55;3774033;78;44521;-21
2021/05/09 06:53:15;;;;;;;3.15;2.25;;;;;;;13.59;63.65;97874.73;3772301;78;44760;-22
2021/05/09 06:58:23;;;;;;;1.90;1.60;;;;;;;13.83;62.89;97871.61;3774362;77;44063;-21
2021/05/09 07:03:29;;;;;;;1.80;1.65;;;;;;;14.02;62.55;97862.50;3773947;78;43759;-22
2021/05/09 07:08:34;;;;;;;1.98;1.70;;;;;;;14.17;62.41;97874.05;3779820;78;43452;-22
2021/05/09 07:13:40;;;;;;;1.65;1.50;;;;;;;14.39;59.51;97865.02;3802817;76;43357;-21
2021/05/09 07:18:46;;;;;;;1.60;1.50;;;;;;;14.58;59.42;97852.61;3800657;77;43713;-27
2021/05/09 07:23:52;;;;;;;1.80;1.50;;;;;;;14.77;60.45;97849.17;3795573;78;44030;-22
2021/05/09 07:28:58;;;;;;;4.42;1.60;;;;;;;14.91;56.87;97842.45;3801870;76;43337;-22
2021/05/09 07:34:05;;;;;;;2.33;1.50;;;;;;;15.12;57.90;97837.91;3804853;78;43727;-22
2021/05/09 07:39:11;;;;;;;3.17;1.60;;;;;;;15.32;57.76;97829.81;3803885;77;43094;-22
2021/05/09 07:44:18;;;;;;;1.75;1.40;;;;;;;15.55;54.98;97832.15;3804932;76;43098;-22
2021/05/09 07:49:24;;;;;;;1.67;1.45;;;;;;;15.78;54.96;97829.54;3803517;77;43362;-20
2021/05/09 07:54:31;;;;;;;2.47;1.40;;;;;;;15.98;55.49;97828.20;3803826;78;43762;-24
2021/05/09 07:59:38;;;;;;;2.42;1.45;;;;;;;16.24;54.78;97822.38;3806338;76;43693;-21
2021/05/09 08:04:44;;;;;;;1.72;1.45;;;;;;;16.52;54.47;97819.41;3803580;77;44171;-22
2021/05/09 08:09:50;;;;;;;2.27;1.52;;;;;;;16.68;53.68;97815.88;3804245;78;44460;-25
2021/05/09 08:14:56;;;;;;;2.20;1.42;;;;;;;17.04;54.26;97826.72;3794808;76;43361;-25
2021/05/09 08:20:03;;;;;;;1.90;1.70;;;;;;;17.14;54.60;97814.00;3794169;78;43467;-24
2021/05/09 08:25:13;;;;;;;2.15;1.60;;;;;;;17.48;54.06;97812.71;3798604;76;44114;-25
2021/05/09 08:30:26;;;;;;;1.75;1.37;;;;;;;17.76;53.37;97805.19;3802587;77;44175;-26
2021/05/09 08:35:36;;;;;;;6.15;1.50;;;;;;;18.01;52.00;97813.36;3798260;77;44033;-26
2021/05/09 08:40:42;;;;;;;1.65;1.30;;;;;;;18.37;52.91;97808.16;3804380;76;43326;-25
2021/05/09 08:45:48;;;;;;;3.02;1.32;;;;;;;18.61;51.95;97810.52;3803590;77;44069;-25
2021/05/09 08:50:55;;;;;;;1.80;1.30;;;;;;;18.86;51.10;97796.75;3804472;76;44857;-25
2021/05/09 08:56:00;;;;;;;1.90;1.30;;;;;;;19.17;51.44;97792.69;3804726;76;44407;-25
2021/05/09 09:01:06;;;;;;;1.77;1.17;;;;;;;19.42;50.19;97784.86;3802245;78;44778;-25
2021/05/09 09:06:16;;;;;;;2.67;1.40;;;;;;;19.67;51.35;97787.38;3800733;78;43367;-25
2021/05/09 09:11:29;;;;;;;2.95;1.35;;;;;;;19.97;49.66;97770.91;3790921;77;43723;-25
2021/05/09 09:16:35;;;;;;;1.87;1.30;;;;;;;20.28;48.04;97770.24;3770320;78;43678;-25
2021/05/09 09:21:42;;;;;;;3.62;1.30;;;;;;;20.44;48.19;97767.81;3774281;77;44175;-23
2021/05/09 09:26:51;;;;;;;1.37;1.10;;;;;;;20.84;49.04;97762.91;3770784;77;43991;-23
2021/05/09 09:31:58;;;;;;;1.95;1.25;;;;;;;20.93;48.58;97755.14;3774366;78;43378;-23
2021/05/09 09:37:05;;;;;;;3.75;2.08;;;;;;;21.18;47.51;97748.44;3769233;78;43431;-23
2021/05/09 09:42:11;;;;;;;1.45;1.20;;;;;;;21.39;47.18;97748.27;3775350;77;42991;-24
2021/05/09 09:47:17;;;;;;;2.40;1.00;;;;;;;21.66;46.93;97755.86;3773675;78;44049;-24
2021/05/09 09:52:26;;;;;;;2.20;1.40;;;;;;;21.88;44.91;97738.08;3774068;77;44425;-24
2021/05/09 09:57:33;;;;;;;1.30;1.10;;;;;;;21.97;44.97;97737.13;3777321;77;44073;-24
2021/05/09 10:02:40;;;;;;;1.47;1.32;;;;;;;22.14;44.36;97735.19;3774433;78;43708;-24
2021/05/09 10:07:46;;;;;;;1.55;1.15;;;;;;;22.35;44.57;97728.59;3773659;78;44161;-24
2021/05/09 10:12:52;;;;;;;1.65;1.20;;;;;;;22.36;44.29;97732.99;3786015;76;43460;-24
2021/05/09 10:17:58;;;;;;;2.17;1.40;;;;;;;22.46;44.46;97735.08;3791115;78;43721;-24
2021/05/09 10:23:06;;;;;;;3.92;1.42;;;;;;;22.66;43.63;97724.85;3787390;78;44048;-23
2021/05/09 10:28:13;;;;;;;2.70;1.40;;;;;;;22.88;42.68;97712.47;3786172;76;44412;-24
2021/05/09 10:33:45;;;;;;;4.05;1.30;;;;;;;22.84;43.66;97715.44;3792829;76;44025;-24
2021/05/09 10:39:10;;;;;;;9.83;6.42;;;;;;;22.96;42.34;97706.22;3794723;78;44178;-24
2021/05/09 10:44:41;;;;;;;1.40;1.30;;;;;;;23.28;41.70;97709.58;3804040;76;44123;-24
2021/05/09 10:50:25;;;;;;;1.98;1.50;;;;;;;23.31;42.41;97711.25;3804543;78;44542;-24
2021/05/09 10:55:42;;;;;;;3.83;1.30;;;;;;;23.36;42.47;97696.16;3805006;76;43914;-24
2021/05/09 11:01:25;;;;;;;7.03;1.80;;;;;;;23.47;42.06;97694.86;3802979;76;43419;-24
2021/05/09 11:06:46;;;;;;;14.38;2.10;;;;;;;23.87;42.47;97685.80;3585400;81;43336;-24
2021/05/09 11:12:02;;;;;;;21.27;2.30;;;;;;;23.99;42.78;97686.45;3779485;76;44107;-24
2021/05/09 11:17:14;;;;;;;5.85;1.47;;;;;;;24.28;42.36;97685.49;3828531;77;43038;-25
2021/05/09 11:22:29;;;;;;;19.07;2.30;;;;;;;24.20;41.42;97673.59;3829113;76;43799;-25
2021/05/09 11:27:35;;;;;;;3.77;1.35;;;;;;;24.44;41.78;97663.50;3825339;76;44816;-23
2021/05/09 11:32:44;;;;;;;1.80;1.52;;;;;;;24.61;41.21;97655.86;3829693;76;44783;-23
2021/05/09 11:37:49;;;;;;;1.72;1.40;;;;;;;24.88;41.03;97654.81;3828735;77;43523;-24
2021/05/09 11:42:55;;;;;;;2.08;1.32;;;;;;;24.97;41.03;97646.02;3825358;76;43453;-24
2021/05/09 11:48:01;;;;;;;2.27;1.52;;;;;;;25.01;40.35;97644.35;3825011;77;43688;-25
2021/05/09 11:53:07;;;;;;;2.15;1.42;;;;;;;25.19;40.45;97634.17;3824885;76;43311;-25
2021/05/09 11:58:15;;;;;;;2.75;1.30;;;;;;;25.22;41.16;97622.60;3826065;76;43197;-24
2021/05/09 12:03:24;;;;;;;3.72;1.30;;;;;;;25.31;40.83;97617.90;3829652;76;44041;-24
2021/05/09 12:08:31;;;;;;;1.45;1.35;;;;;;;25.48;40.14;97600.52;3829653;77;43459;-26
2021/05/09 12:13:38;;;;;;;7.45;1.72;;;;;;;25.55;41.42;97605.74;3798073;76;43353;-26
2021/05/09 12:18:44;;;;;;;3.58;1.30;;;;;;;25.86;39.97;97600.16;3774755;77;44030;-26
2021/05/09 12:23:52;;;;;;;3.25;1.57;;;;;;;26.06;39.16;97597.03;3776233;77;43766;-26
2021/05/09 12:29:17;;;;;;;2.02;1.40;;;;;;;26.17;40.01;97589.56;3774954;77;43979;-25
2021/05/09 12:34:27;;;;;;;2.95;1.47;;;;;;;26.42;40.01;97580.30;3775573;77;44016;-25
2021/05/09 12:39:33;;;;;;;4.20;1.50;;;;;;;26.70;40.23;97569.05;3774305;78;43672;-25
2021/05/09 12:44:39;;;;;;;2.12;1.40;;;;;;;26.88;38.42;97570.33;3775109;77;43717;-25
2021/05/09 12:49:59;;;;;;;1.75;1.20;;;;;;;27.14;38.38;97568.72;3774913;77;44589;-26
2021/05/09 12:55:06;;;;;;;2.98;1.30;;;;;;;27.18;38.90;97558.71;3774620;77;44107;-28
2021/05/09 13:00:14;;;;;;;2.98;1.20;;;;;;;27.63;38.14;97551.64;3771899;77;44614;-26
2021/05/09 13:05:24;;;;;;;2.12;1.27;;;;;;;27.74;36.49;97544.59;3771556;77;43366;-27
2021/05/09 13:10:29;;;;;;;2.00;1.22;;;;;;;27.87;37.04;97549.41;3774556;77;43681;-25
2021/05/09 13:15:40;;;;;;;1.60;1.40;;;;;;;27.96;36.17;97540.70;3770614;78;43430;-26
2021/05/09 13:20:45;;;;;;;2.22;1.60;;;;;;;28.13;36.13;97538.03;3773310;77;43707;-26
2021/05/09 13:25:54;;;;;;;1.55;1.40;;;;;;;28.51;36.41;97527.50;3774774;77;44045;-26
2021/05/09 13:30:59;;;;;;;1.47;1.15;;;;;;;28.68;36.16;97513.09;3774888;77;44197;-26
2021/05/09 13:36:09;;;;;;;2.67;1.35;;;;;;;28.92;34.39;97504.69;3773457;78;44073;-26
2021/05/09 13:41:14;;;;;;;1.40;1.20;;;;;;;29.06;34.31;97504.13;3774726;77;44094;-25
2021/05/09 13:46:20;;;;;;;2.08;1.37;;;;;;;29.27;35.56;97496.00;3768466;78;43660;-27
2021/05/09 13:51:26;;;;;;;1.62;1.37;;;;;;;29.52;33.54;97497.47;3768762;78;43263;-27
2021/05/09 13:56:34;;;;;;;1.40;1.30;;;;;;;29.31;34.39;97488.72;3776192;77;44039;-27
2021/05/09 14:01:39;;;;;;;1.95;1.77;;;;;;;29.02;34.13;97482.88;3773589;77;43461;-26
2021/05/09 14:06:47;;;;;;;2.92;1.65;;;;;;;28.81;35.42;97473.55;3773032;78;43707;-26
2021/05/09 14:11:59;;;;;;;1.42;1.32;;;;;;;28.52;34.38;97465.42;3773956;77;43687;-24
2021/05/09 14:17:02;;;;;;;1.75;1.30;;;;;;;29.39;33.74;97475.54;3768667;78;43417;-24
2021/05/09 14:22:08;;;;;;;3.27;1.17;;;;;;;29.94;32.28;97473.85;3773901;78;44086;-24
2021/05/09 14:27:14;;;;;;;2.12;1.35;;;;;;;30.09;32.78;97476.28;3773696;77;44028;-24
2021/05/09 14:32:20;;;;;;;2.95;1.20;;;;;;;30.29;31.70;97463.88;3773977;77;43402;-24
2021/05/09 14:37:28;;;;;;;2.30;1.30;;;;;;;30.67;31.67;97458.53;3774859;77;43421;-24
2021/05/09 14:42:34;;;;;;;2.02;1.40;;;;;;;31.44;31.98;97457.63;3774361;77;44028;-24
2021/05/09 14:47:41;;;;;;;4.05;1.30;;;;;;;31.30;31.08;97452.98;3771239;78;44424;-26
2021/05/09 14:52:47;;;;;;;3.37;1.20;;;;;;;31.30;31.08;97452.98;3773461;77;44522;-27
2021/05/09 14:57:53;;;;;;;1.30;1.20;;;;;;;30.73;31.36;97440.59;3774963;77;44084;-26
2021/05/09 15:02:59;;;;;;;2.77;1.10;;;;;;;30.73;31.36;97440.59;3772670;77;44117;-27
2021/05/09 15:08:06;;;;;;;2.98;1.47;;;;;;;29.40;31.59;97420.89;3772099;78;43722;-26
2021/05/09 15:13:12;;;;;;;1.72;1.12;;;;;;;29.62;32.01;97427.06;3774263;77;43346;-26
2021/05/09 15:18:18;;;;;;;2.02;1.40;;;;;;;29.34;33.15;97418.21;3772977;77;44071;-26
2021/05/09 15:23:26;;;;;;;3.35;1.42;;;;;;;28.71;32.09;97419.08;3769189;77;43690;-25
2021/05/09 15:28:33;;;;;;;2.45;1.40;;;;;;;28.28;32.82;97411.78;3776608;77;43328;-26
2021/05/09 15:33:39;;;;;;;1.65;1.17;;;;;;;28.05;33.68;97419.63;3768300;78;43488;-26
2021/05/09 15:38:46;;;;;;;1.47;1.37;;;;;;;28.05;33.32;97411.33;3773856;78;44444;-26
2021/05/09 15:43:51;;;;;;;1.90;1.30;;;;;;;28.60;33.32;97410.15;3775809;77;43677;-26
2021/05/09 15:48:57;;;;;;;1.90;1.32;;;;;;;28.78;33.03;97412.36;3770251;77;44087;-27
2021/05/09 15:54:03;;;;;;;6.47;2.90;;;;;;;28.86;33.72;97406.10;3774022;78;44074;-26
2021/05/09 15:59:09;;;;;;;4.97;1.98;;;;;;;28.93;33.19;97408.47;3780213;77;43754;-25
2021/05/09 16:04:16;;;;;;;4.12;2.05;;;;;;;29.04;32.93;97402.44;3775156;77;43448;-26
2021/05/09 16:09:22;;;;;;;4.85;1.70;;;;;;;29.12;32.67;97384.23;3774848;77;43492;-27
2021/05/09 16:14:28;;;;;;;1.57;1.47;;;;;;;29.37;31.01;97387.63;3782824;77;43131;-26
2021/05/09 16:19:34;;;;;;;4.70;1.30;;;;;;;29.07;32.21;97378.80;3807015;76;44105;-25
2021/05/09 16:24:41;;;;;;;4.37;1.17;;;;;;;29.30;31.65;97371.37;3798092;76;44066;-25
2021/05/09 16:29:47;;;;;;;1.20;1.10;;;;;;;29.42;30.70;97367.28;3801029;76;44205;-27
2021/05/09 16:34:53;;;;;;;1.75;0.93;;;;;;;28.87;31.49;97346.19;3806796;77;44505;-26
2021/05/09 16:39:59;;;;;;;2.02;1.35;;;;;;;28.93;31.65;97358.57;3806999;76;43222;-26
2021/05/09 16:45:09;;;;;;;2.55;1.37;;;;;;;29.32;31.55;97348.89;3805898;78;44025;-25
2021/05/09 16:50:15;;;;;;;2.40;1.10;;;;;;;29.11;31.58;97354.05;3804637;78;43725;-25
2021/05/09 16:55:21;;;;;;;2.20;1.32;;;;;;;28.95;32.27;97346.62;3807190;76;44133;-25
2021/05/09 17:00:27;;;;;;;1.75;1.40;;;;;;;28.58;32.32;97347.28;3806282;78;44064;-25
2021/05/09 17:05:34;;;;;;;2.55;1.57;;;;;;;28.30;32.30;97349.99;3801966;76;44148;-25
2021/05/09 17:10:39;;;;;;;2.27;1.20;;;;;;;28.50;32.47;97338.84;3802736;78;43717;-26
2021/05/09 17:15:46;;;;;;;1.40;1.20;;;;;;;28.58;32.76;97345.06;3791890;78;43673;-26
2021/05/09 17:20:52;;;;;;;1.77;1.30;;;;;;;28.25;33.01;97348.71;3774165;78;43428;-26
2021/05/09 17:25:59;;;;;;;1.50;1.17;;;;;;;28.15;32.99;97343.36;3760991;77;43718;-26
2021/05/09 17:31:05;;;;;;;1.77;1.40;;;;;;;28.10;33.74;97340.11;3770428;78;44065;-26
2021/05/09 17:36:11;;;;;;;1.40;1.30;;;;;;;27.58;33.89;97344.20;3752122;77;44025;-25
2021/05/09 17:41:17;;;;;;;3.02;1.30;;;;;;;27.36;35.15;97334.52;3766942;78;45217;-25
2021/05/09 17:46:24;;;;;;;2.70;1.37;;;;;;;27.36;35.15;97334.52;3774208;78;43435;-26
2021/05/09 17:51:30;;;;;;;1.75;1.37;;;;;;;26.95;35.51;97332.31;3774256;77;43172;-25
2021/05/09 17:56:36;;;;;;;2.08;1.22;;;;;;;26.70;36.11;97336.15;3773954;77;43352;-25
2021/05/09 18:01:42;;;;;;;1.42;1.32;;;;;;;26.52;36.95;97338.56;3773756;77;44023;-25
2021/05/09 18:06:48;;;;;;;3.50;1.42;;;;;;;26.42;37.13;97345.58;3776006;78;43344;-25
2021/05/09 18:11:55;;;;;;;3.35;1.42;;;;;;;26.28;37.29;97344.06;3776678;78;44494;-24
2021/05/09 18:17:07;;;;;;;1.90;1.40;;;;;;;26.14;37.36;97347.50;3776789;77;43459;-24
2021/05/09 18:27:34;;;;;;;1.98;1.35;;;;;;;25.56;37.96;97348.73;3712887;78;43083;-24
2021/05/09 18:32:41;;;;;;;1.35;1.25;;;;;;;25.32;38.16;97349.39;3732910;78;43989;-24
2021/05/09 18:37:47;;;;;;;1.87;1.27;;;;;;;25.01;38.44;97352.28;3712143;78;44153;-24
2021/05/09 18:42:54;;;;;;;2.30;1.77;;;;;;;24.72;39.11;97355.14;3733613;78;44471;-24
2021/05/09 18:48:00;;;;;;;1.95;1.30;;;;;;;24.56;39.28;97353.52;3775820;77;44334;-24
2021/05/09 18:53:07;;;;;;;2.83;1.50;;;;;;;24.31;39.52;97357.39;3774112;78;44072;-24
2021/05/09 18:58:12;;;;;;;2.22;1.50;;;;;;;24.06;40.01;97362.38;3734237;78;43305;-24
2021/05/09 19:03:18;;;;;;;2.80;1.65;;;;;;;23.91;40.13;97370.05;3733188;78;42958;-24
2021/05/09 19:08:27;;;;;;;3.98;1.85;;;;;;;23.72;40.44;97370.28;3713766;78;43381;-24
2021/05/09 19:13:32;;;;;;;1.70;1.40;;;;;;;23.51;40.79;97367.51;3739663;78;43337;-24
2021/05/09 19:18:38;;;;;;;1.50;1.35;;;;;;;23.29;41.34;97367.18;3772384;78;43430;-24
2021/05/09 19:23:48;;;;;;;1.65;1.42;;;;;;;22.98;42.00;97371.17;3731526;78;43674;-24
2021/05/09 19:28:57;;;;;;;1.52;1.40;;;;;;;22.70;42.63;97377.33;3715967;78;43687;-24
2021/05/09 19:34:03;;;;;;;1.62;1.50;;;;;;;22.51;42.94;97385.17;3730622;78;43188;-24
2021/05/09 19:39:09;;;;;;;1.95;1.50;;;;;;;22.42;42.92;97371.67;3717806;78;44016;-24
2021/05/09 19:44:15;;;;;;;1.52;1.42;;;;;;;22.32;42.97;97375.13;3729992;78;43682;-24
2021/05/09 19:49:22;;;;;;;2.95;1.55;;;;;;;22.27;42.90;97373.74;3718617;78;43400;-24
2021/05/09 19:54:27;;;;;;;1.70;1.60;;;;;;;22.20;42.92;97367.64;3728836;78;43058;-23
2021/05/09 19:59:33;;;;;;;2.08;1.72;;;;;;;22.12;43.03;97364.30;3742574;78;43418;-24
2021/05/09 20:04:39;;;;;;;2.27;1.80;;;;;;;22.03;43.24;97360.39;3727323;78;43429;-24
2021/05/09 20:09:45;;;;;;;3.35;1.62;;;;;;;21.93;43.48;97361.69;3719278;78;44725;-23
2021/05/09 20:14:51;;;;;;;1.67;1.57;;;;;;;21.83;43.64;97361.86;3750229;77;43458;-23
2021/05/09 20:19:57;;;;;;;1.80;1.70;;;;;;;21.73;43.81;97360.95;3790097;78;43661;-24
2021/05/09 20:25:04;;;;;;;1.98;1.60;;;;;;;21.60;44.23;97362.19;3749738;78;43412;-25
2021/05/09 20:30:12;;;;;;;2.20;1.80;;;;;;;21.48;44.46;97355.47;3745012;78;43678;-23
2021/05/09 20:35:18;;;;;;;2.92;1.70;;;;;;;21.35;44.98;97359.43;3748789;78;44200;-23
2021/05/09 20:40:27;;;;;;;2.25;1.75;;;;;;;21.25;45.24;97353.32;3745953;78;42752;-25
2021/05/09 20:45:34;;;;;;;2.60;2.00;;;;;;;21.20;45.39;97360.94;3748011;78;44404;-24
2021/05/09 20:50:40;;;;;;;2.00;1.70;;;;;;;21.13;45.59;97359.48;3747325;78;44063;-25
2021/05/09 20:55:47;;;;;;;2.10;1.75;;;;;;;21.08;45.63;97363.80;3746327;78;43614;-24
2021/05/09 21:00:52;;;;;;;2.45;1.82;;;;;;;20.98;45.83;97360.94;3773687;77;43368;-25
2021/05/09 21:05:59;;;;;;;3.15;1.77;;;;;;;20.97;45.71;97358.47;3745436;78;43741;-25
2021/05/09 21:11:05;;;;;;;2.50;1.70;;;;;;;20.85;45.97;97359.42;3748925;78;44038;-25
2021/05/09 21:16:10;;;;;;;2.27;2.00;;;;;;;20.78;46.08;97360.13;3785247;78;44054;-25
2021/05/09 21:21:16;;;;;;;2.27;1.60;;;;;;;20.68;46.27;97357.23;3764071;78;42645;-25
2021/05/09 21:26:22;;;;;;;3.00;1.70;;;;;;;20.54;46.45;97355.41;3731303;78;43696;-25
2021/05/09 21:31:28;;;;;;;1.95;1.72;;;;;;;20.48;46.37;97351.22;3738290;78;44049;-25
2021/05/09 21:36:35;;;;;;;2.30;1.70;;;;;;;20.34;46.61;97340.37;3730262;78;44062;-25
2021/05/09 21:41:40;;;;;;;2.00;1.80;;;;;;;20.22;46.78;97343.20;3738704;78;43378;-26
2021/05/09 21:46:46;;;;;;;1.70;1.60;;;;;;;20.20;46.69;97346.72;3728973;78;43357;-26
2021/05/09 21:51:52;;;;;;;1.72;1.50;;;;;;;20.12;46.72;97343.05;3739421;78;43539;-26
2021/05/09 21:56:58;;;;;;;2.02;1.60;;;;;;;20.08;46.94;97347.34;3737385;78;43056;-26
2021/05/09 22:02:04;;;;;;;2.00;1.75;;;;;;;19.90;47.56;97342.44;3756607;78;43681;-26
2021/05/09 22:07:10;;;;;;;2.40;1.90;;;;;;;19.57;48.66;97345.41;3727463;78;44714;-25
2021/05/09 22:12:18;;;;;;;3.55;2.02;;;;;;;19.32;49.58;97346.59;3741130;78;43686;-25
2021/05/09 22:17:23;;;;;;;4.35;2.08;;;;;;;19.19;50.28;97347.70;3786817;78;44389;-25
2021/05/09 22:22:31;;;;;;;2.45;2.10;;;;;;;19.06;50.43;97342.00;3807334;78;43684;-25
2021/05/09 22:27:37;;;;;;;2.08;1.90;;;;;;;19.12;50.08;97351.64;3807616;77;43459;-25
2021/05/09 22:32:44;;;;;;;2.45;1.90;;;;;;;19.05;50.16;97342.26;3807191;77;44062;-25
2021/05/09 22:37:51;;;;;;;2.00;1.80;;;;;;;19.05;49.89;97342.26;3807517;78;44514;-25
2021/05/09 22:42:57;;;;;;;2.08;1.85;;;;;;;19.06;49.86;97339.79;3807253;78;43398;-25
2021/05/09 22:48:04;;;;;;;2.67;1.77;;;;;;;18.99;50.08;97337.23;3807342;78;42726;-25
2021/05/09 22:53:10;;;;;;;4.80;1.85;;;;;;;18.95;50.20;97336.05;3807423;78;43086;-25
2021/05/09 22:58:15;;;;;;;2.85;1.70;;;;;;;18.87;50.87;97326.86;3806077;78;44066;-25
2021/05/09 23:03:21;;;;;;;3.58;1.67;;;;;;;18.84;50.74;97319.15;3793213;76;43705;-25
2021/05/09 23:08:27;;;;;;;2.75;1.80;;;;;;;18.73;51.26;97318.95;3757475;79;44038;-25
2021/05/09 23:13:33;;;;;;;2.08;1.60;;;;;;;18.68;51.24;97316.09;3763335;78;44797;-25
2021/05/09 23:18:56;;;;;;;2.00;1.80;;;;;;;18.64;51.53;97316.27;3808897;77;44070;-25
2021/05/09 23:23:49;;;;;;;2.17;1.95;;;;;;;18.64;51.43;97307.57;3670303;81;44111;-25
2021/05/09 23:28:56;;;;;;;2.47;1.92;;;;;;;18.64;51.19;97301.27;3732818;79;44017;-25
2021/05/09 23:34:01;;;;;;;1.82;1.60;;;;;;;18.62;51.35;97303.44;3826701;77;44026;-25
2021/05/09 23:39:09;;;;;;;1.82;1.67;;;;;;;18.60;51.35;97305.56;3826567;76;44012;-25
2021/05/09 23:44:16;;;;;;;2.00;1.70;;;;;;;18.50;51.88;97305.36;3667986;80;43650;-25
2021/05/09 23:49:22;;;;;;;3.52;1.75;;;;;;;18.42;52.06;97301.91;3826659;77;43971;-25
2021/05/09 23:54:28;;;;;;;2.58;1.60;;;;;;;18.38;52.51;97296.66;3826386;77;43592;-25
2021/05/09 23:59:34;;;;;;;2.00;1.70;;;;;;;18.35;52.45;97297.13;3823992;76;44029;-26
